Bleiswijk, Netherlands
Current Conditions -  °F | °C
As of 6:55 PM on Thursday 23 Oct 2014 (Local Time) from EHRD Reporting Station
Overcast Overcast  
Wind Chill: 55°   Ceiling: 3800
Heat Index: 55°   Visibility: 6mi
Dew Point: 52°   Wind: 13mph
Humidity: 88%   Direction: 190°S
Pressure: 30.12"   Gusts: NA
Location:  52.01°N, 4.53°E
Report Text: EHRD 231655Z AUTO 19011KT 160V260 9999 SCT015 BKN038 OVC04213/11 Q1020 NOSIG
Loading
Personal Weather Stations






























Interactive Weather Map
Tropical Storm Tracking
New forecast layout! Learn more

10-Day Weather Forecast

Advertisements
Track Severe Weather on mobile